createdAt,value
2019-01-23T00:02:21.058Z,93421.73
2019-01-23T00:04:50.676Z,93356.53
2019-01-23T00:07:20.240Z,93419.39
2019-01-23T00:09:49.737Z,93423.37
2019-01-23T00:12:19.889Z,93422.27
2019-01-23T00:14:49.412Z,93417.62
2019-01-23T00:17:18.908Z,93416.23
2019-01-23T00:19:48.462Z,93412.46
2019-01-23T00:22:17.964Z,93417.00
2019-01-23T00:24:48.251Z,93416.00
2019-01-23T00:27:17.840Z,93409.84
2019-01-23T00:29:47.315Z,93406.84
2019-01-23T00:32:49.440Z,93408.02
2019-01-23T00:35:31.828Z,93406.95
2019-01-23T00:38:20.829Z,93403.11
2019-01-23T00:40:50.393Z,93351.25
2019-01-23T00:43:19.911Z,93404.34
2019-01-23T00:45:49.406Z,93398.90
2019-01-23T00:48:18.968Z,93394.42
2019-01-23T00:50:48.470Z,93392.32
2019-01-23T00:53:18.056Z,93391.61
2019-01-23T00:55:47.560Z,93391.19
2019-01-23T00:58:17.098Z,93386.20
2019-01-23T01:00:46.594Z,93385.56
2019-01-23T01:03:16.113Z,93383.75
2019-01-23T01:05:45.611Z,93381.99
2019-01-23T01:08:15.214Z,93379.16
2019-01-23T01:10:44.807Z,93374.34
2019-01-23T01:13:14.391Z,93369.22
2019-01-23T01:15:43.911Z,93372.66
2019-01-23T01:18:13.663Z,93372.36
2019-01-23T01:20:43.162Z,93370.87
2019-01-23T01:23:12.685Z,93372.55
2019-01-23T01:25:42.339Z,93369.64
2019-01-23T01:28:11.840Z,93368.36
2019-01-23T01:30:42.192Z,93367.71
2019-01-23T01:33:11.686Z,93361.56
2019-01-23T01:35:41.204Z,93364.97
2019-01-23T01:38:10.703Z,93362.48
2019-01-23T01:40:40.214Z,93353.98
2019-01-23T01:43:10.609Z,93349.22
2019-01-23T01:45:40.187Z,93348.41
2019-01-23T01:48:09.711Z,93346.60
2019-01-23T01:50:39.251Z,93345.94
2019-01-23T01:53:08.779Z,93334.64
2019-01-23T01:55:38.923Z,93330.70
2019-01-23T01:58:10.159Z,93324.44
2019-01-23T02:00:39.942Z,93318.29
2019-01-23T02:03:09.547Z,93315.42
2019-01-23T02:05:39.066Z,93316.05
2019-01-23T02:08:08.577Z,93307.90
2019-01-23T02:10:38.148Z,93305.83
2019-01-23T02:13:07.700Z,93299.08
2019-01-23T02:15:37.219Z,93293.96
2019-01-23T02:18:06.744Z,93289.70
2019-01-23T02:20:36.264Z,93288.84
2019-01-23T02:23:05.862Z,93295.81
2019-01-23T02:25:35.417Z,93281.19
2019-01-23T02:28:05.089Z,93274.66
2019-01-23T02:30:34.747Z,93274.77
2019-01-23T02:33:04.251Z,93268.90
2019-01-23T02:35:33.842Z,93269.46
2019-01-23T02:38:22.706Z,93259.70
2019-01-23T02:41:11.621Z,93253.45
2019-01-23T02:43:41.147Z,93193.30
2019-01-23T02:46:10.774Z,93238.08
2019-01-23T02:48:40.300Z,93237.91
2019-01-23T02:51:09.823Z,93226.05
2019-01-23T02:53:39.319Z,93230.22
2019-01-23T02:56:08.837Z,93230.25
2019-01-23T02:58:38.371Z,93227.13
2019-01-23T03:01:08.520Z,93215.95
2019-01-23T03:03:38.039Z,93211.47
2019-01-23T03:06:07.609Z,93215.37
2019-01-23T03:08:37.109Z,93210.45
2019-01-23T03:11:06.670Z,93209.31
2019-01-23T03:13:36.888Z,93210.73
2019-01-23T03:16:06.396Z,93202.84
2019-01-23T03:18:35.899Z,93201.24
2019-01-23T03:21:24.749Z,93198.83
2019-01-23T03:23:54.440Z,93190.68
2019-01-23T03:26:24.166Z,93191.35
2019-01-23T03:28:53.700Z,93185.30
2019-01-23T03:31:23.290Z,93186.89
2019-01-23T03:33:53.291Z,93188.78
2019-01-23T03:36:22.873Z,93189.57
2019-01-23T03:38:52.428Z,93193.73
2019-01-23T03:41:41.360Z,93189.18
2019-01-23T03:44:30.262Z,93191.89
2019-01-23T03:47:12.675Z,93192.70
2019-01-23T03:49:42.162Z,93191.67
2019-01-23T03:52:11.680Z,93188.06
2019-01-23T03:54:41.206Z,93183.25
2019-01-23T03:57:10.859Z,93184.22
2019-01-23T03:59:40.357Z,93177.47
2019-01-23T04:02:09.919Z,93179.65
2019-01-23T04:04:39.463Z,93171.33
2019-01-23T04:07:08.962Z,93170.33
2019-01-23T04:09:38.767Z,93168.50
2019-01-23T04:12:08.631Z,93170.49
2019-01-23T04:14:38.133Z,93165.30
2019-01-23T04:17:07.683Z,93167.02
2019-01-23T04:19:37.189Z,93165.47
2019-01-23T04:22:06.709Z,93163.00
2019-01-23T04:24:36.265Z,93167.66
2019-01-23T04:27:05.836Z,93164.05
2019-01-23T04:29:39.852Z,93164.89
2019-01-23T04:32:07.210Z,93160.96
2019-01-23T04:34:36.760Z,93155.31
2019-01-23T04:37:06.334Z,93155.42
2019-01-23T04:39:55.296Z,93151.95
2019-01-23T04:42:24.800Z,93151.48
2019-01-23T04:44:54.336Z,93148.84
2019-01-23T04:47:23.849Z,93141.77
2019-01-23T04:49:53.368Z,93135.69
2019-01-23T04:52:24.491Z,93132.67
2019-01-23T04:54:54.012Z,93134.06
2019-01-23T04:57:23.527Z,93131.57
2019-01-23T04:59:53.064Z,93135.41
2019-01-23T05:02:22.599Z,93130.27
2019-01-23T05:04:52.190Z,93128.25
2019-01-23T05:07:21.688Z,93121.19
2019-01-23T05:09:51.208Z,93117.63
2019-01-23T05:12:20.797Z,93118.44
2019-01-23T05:14:50.325Z,93116.25
2019-01-23T05:17:19.885Z,93113.78
2019-01-23T05:19:49.399Z,93111.61
2019-01-23T05:22:38.236Z,93104.04
2019-01-23T05:25:08.359Z,93110.27
2019-01-23T05:27:38.524Z,93107.56
2019-01-23T05:30:15.553Z,93101.78
2019-01-23T05:32:45.112Z,93105.24
2019-01-23T05:35:14.780Z,93097.38
2019-01-23T05:37:44.270Z,93093.47
2019-01-23T05:40:14.381Z,93096.56
2019-01-23T05:42:43.954Z,93096.78
2019-01-23T05:45:15.337Z,93096.09
2019-01-23T05:47:44.914Z,93094.06
2019-01-23T05:50:17.838Z,93095.14
2019-01-23T05:52:48.484Z,93094.83
2019-01-23T05:55:18.900Z,93095.77
2019-01-23T05:57:48.427Z,93092.33
2019-01-23T06:00:23.065Z,93090.38
2019-01-23T06:02:52.589Z,93093.58
2019-01-23T06:05:22.315Z,93092.80
2019-01-23T06:07:51.934Z,93093.81
2019-01-23T06:10:21.464Z,93086.77
2019-01-23T06:12:50.970Z,93091.89
2019-01-23T06:15:20.490Z,93090.89
2019-01-23T06:17:50.014Z,93085.89
2019-01-23T06:20:21.575Z,93088.36
2019-01-23T06:22:51.099Z,93089.95
2019-01-23T06:25:39.942Z,93086.22
2019-01-23T06:28:09.478Z,92945.19
2019-01-23T06:30:38.997Z,93086.59
2019-01-23T06:33:08.505Z,93086.02
2019-01-23T06:35:38.095Z,93088.39
2019-01-23T06:38:07.591Z,93081.94
2019-01-23T06:40:37.117Z,93082.11
2019-01-23T06:43:06.633Z,93078.13
2019-01-23T06:45:36.161Z,93076.00
2019-01-23T06:48:05.859Z,93072.83
2019-01-23T06:50:35.462Z,93068.44
2019-01-23T06:53:04.978Z,93063.68
2019-01-23T06:55:34.486Z,93067.80
2019-01-23T06:58:04.190Z,93068.95
2019-01-23T07:00:33.735Z,93068.98
2019-01-23T07:03:03.237Z,93066.11
2019-01-23T07:05:32.792Z,93064.77
2019-01-23T07:08:03.583Z,93061.61
2019-01-23T07:10:33.292Z,93065.63
2019-01-23T07:13:02.791Z,93065.23
2019-01-23T07:15:32.481Z,93061.12
2019-01-23T07:18:01.987Z,93063.02
2019-01-23T07:20:32.449Z,93067.13
2019-01-23T07:23:01.939Z,93069.95
2019-01-23T07:25:31.464Z,93069.75
2019-01-23T07:28:20.360Z,93069.59
2019-01-23T07:31:09.223Z,93061.03
2019-01-23T07:33:38.721Z,93019.85
2019-01-23T07:36:08.378Z,93060.52
2019-01-23T07:38:37.985Z,93058.23
2019-01-23T07:41:07.496Z,93052.09
2019-01-23T07:43:37.005Z,93054.45
2019-01-23T07:46:06.684Z,93046.16
2019-01-23T07:48:36.181Z,93037.50
2019-01-23T07:51:05.837Z,93038.17
2019-01-23T07:53:35.403Z,93038.95
2019-01-23T07:56:05.002Z,93035.37
2019-01-23T07:58:34.514Z,93031.13
2019-01-23T08:01:04.272Z,93026.72
2019-01-23T08:03:33.811Z,93027.66
2019-01-23T08:06:03.363Z,93026.53
2019-01-23T08:08:32.855Z,93023.65
2019-01-23T08:11:02.496Z,93025.67
2019-01-23T08:13:32.035Z,93019.50
2019-01-23T08:16:01.545Z,93019.84
2019-01-23T08:18:31.110Z,93020.67
2019-01-23T08:21:00.633Z,93014.71
2019-01-23T08:23:30.155Z,93015.55
2019-01-23T08:25:59.676Z,93017.77
2019-01-23T08:28:29.181Z,93020.44
2019-01-23T08:30:58.776Z,93019.41
2019-01-23T08:33:28.362Z,93018.75
2019-01-23T08:35:57.886Z,93007.05
2019-01-23T08:38:27.442Z,93017.05
2019-01-23T08:40:57.010Z,93018.86
2019-01-23T08:43:26.565Z,93020.49
2019-01-23T08:45:56.056Z,93019.06
2019-01-23T08:48:25.547Z,93011.79
2019-01-23T08:50:55.066Z,93010.32
2019-01-23T08:53:24.572Z,93015.44
2019-01-23T08:55:54.095Z,93016.72
2019-01-23T08:58:23.662Z,93015.34
2019-01-23T09:00:53.181Z,93017.52
2019-01-23T09:03:23.926Z,93008.58
2019-01-23T09:05:53.521Z,93008.91
2019-01-23T09:08:23.119Z,93005.93
2019-01-23T09:10:52.702Z,93004.44
2019-01-23T09:13:22.239Z,93001.64
2019-01-23T09:15:52.648Z,92997.34
2019-01-23T09:18:22.177Z,92989.35
2019-01-23T09:20:51.699Z,92988.83
2019-01-23T09:23:21.204Z,92984.47
2019-01-23T09:25:51.686Z,92988.48
2019-01-23T09:28:21.189Z,92990.37
2019-01-23T09:31:10.177Z,92987.86
2019-01-23T09:33:44.348Z,92990.48
2019-01-23T09:36:33.085Z,92986.42
2019-01-23T09:40:00.635Z,92982.13
2019-01-23T09:43:03.931Z,92858.13
2019-01-23T09:45:43.780Z,92848.96
2019-01-23T09:48:24.061Z,92968.20
2019-01-23T09:51:23.291Z,92959.53
2019-01-23T09:53:57.475Z,92967.64
2019-01-23T09:56:26.990Z,92963.10
2019-01-23T09:58:56.546Z,92956.88
2019-01-23T10:01:45.432Z,92950.30
2019-01-23T10:04:15.005Z,92955.81
2019-01-23T10:06:45.359Z,92949.03
2019-01-23T10:09:14.878Z,92960.35
2019-01-23T10:11:44.413Z,92954.17
2019-01-23T10:14:13.938Z,92949.56
2019-01-23T10:16:43.575Z,92951.40
2019-01-23T10:19:13.148Z,92953.48
2019-01-23T10:21:42.680Z,92952.16
2019-01-23T10:24:12.170Z,92940.15
2019-01-23T10:26:41.752Z,92944.07
2019-01-23T10:29:11.429Z,92930.22
2019-01-23T10:31:40.984Z,92936.59
2019-01-23T10:34:10.566Z,92932.36
2019-01-23T10:36:40.150Z,92924.64
2019-01-23T10:39:09.814Z,92927.17
2019-01-23T10:41:39.366Z,92922.72
2019-01-23T10:44:10.123Z,92915.44
2019-01-23T10:46:39.671Z,92912.64
2019-01-23T10:49:09.198Z,92908.80
2019-01-23T10:51:38.697Z,92912.55
2019-01-23T10:54:09.877Z,92902.56
2019-01-23T10:56:39.658Z,92913.06
2019-01-23T10:59:09.156Z,92908.45
2019-01-23T11:01:38.740Z,92899.21
2019-01-23T11:04:08.441Z,92900.79
2019-01-23T11:06:37.946Z,92898.77
2019-01-23T11:09:07.923Z,92897.45
2019-01-23T11:11:37.469Z,92890.91
2019-01-23T11:14:07.028Z,92885.41
2019-01-23T11:16:36.547Z,92886.64
2019-01-23T11:19:06.182Z,92887.50
2019-01-23T11:21:35.709Z,92882.85
2019-01-23T11:24:05.447Z,92886.16
2019-01-23T11:26:35.048Z,92881.47
2019-01-23T11:29:04.612Z,92878.31
2019-01-23T11:31:34.171Z,92882.80
2019-01-23T11:34:03.999Z,92871.14
2019-01-23T11:36:33.520Z,92871.72
2019-01-23T11:39:04.939Z,92863.66
2019-01-23T11:41:34.649Z,92865.83
2019-01-23T11:44:04.339Z,92873.32
2019-01-23T11:46:33.838Z,92867.97
2019-01-23T11:49:03.411Z,92865.46
2019-01-23T11:51:33.573Z,92866.67
2019-01-23T11:54:03.076Z,92863.19
2019-01-23T11:56:32.623Z,92867.55
2019-01-23T11:59:02.108Z,92865.63
2019-01-23T12:01:31.839Z,92866.52
2019-01-23T12:04:01.329Z,92868.70
2019-01-23T12:06:30.955Z,92865.16
2019-01-23T12:09:00.596Z,92866.34
2019-01-23T12:11:31.451Z,92867.28
2019-01-23T12:14:00.941Z,92868.45
2019-01-23T12:16:30.469Z,92866.27
2019-01-23T12:19:00.016Z,92868.92
2019-01-23T12:21:29.746Z,92870.80
2019-01-23T12:24:00.366Z,92871.38
2019-01-23T12:26:29.981Z,92868.66
2019-01-23T12:28:59.546Z,92868.28
2019-01-23T12:31:34.904Z,92863.62
2019-01-23T12:34:00.490Z,92858.75
2019-01-23T12:36:30.067Z,92859.31
2019-01-23T12:38:59.663Z,92859.18
2019-01-23T12:41:29.172Z,92863.31
2019-01-23T12:43:58.750Z,92864.41
2019-01-23T12:46:28.258Z,92856.56
2019-01-23T12:48:58.206Z,92850.31
2019-01-23T12:51:27.694Z,92850.47
2019-01-23T12:53:57.327Z,92857.22
2019-01-23T12:56:26.858Z,92853.38
2019-01-23T12:58:56.393Z,92852.09
2019-01-23T13:01:26.503Z,92845.63
2019-01-23T13:03:56.024Z,92854.28
2019-01-23T13:06:25.523Z,92849.52
2019-01-23T13:08:55.091Z,92855.02
2019-01-23T13:11:24.710Z,92851.73
2019-01-23T13:13:55.006Z,92855.76
2019-01-23T13:16:24.517Z,92851.93
2019-01-23T13:18:54.050Z,92858.86
2019-01-23T13:21:23.644Z,92856.74
2019-01-23T13:23:53.249Z,92854.17
2019-01-23T13:26:23.328Z,92859.22
2019-01-23T13:28:52.890Z,92853.20
2019-01-23T13:31:22.523Z,92858.17
2019-01-23T13:33:52.094Z,92859.77
2019-01-23T13:36:21.697Z,92860.63
2019-01-23T13:38:51.686Z,92853.98
2019-01-23T13:41:23.999Z,92861.84
2019-01-23T13:43:53.539Z,92863.34
2019-01-23T13:46:42.380Z,92862.52
2019-01-23T13:49:13.159Z,92806.82
2019-01-23T13:51:42.701Z,92871.52
2019-01-23T13:54:12.272Z,92871.61
2019-01-23T13:56:41.921Z,92877.66
2019-01-23T13:59:30.763Z,92876.53
2019-01-23T14:02:00.299Z,92876.16
2019-01-23T14:04:29.813Z,92875.92
2019-01-23T14:06:59.355Z,92882.11
2019-01-23T14:09:29.923Z,92888.25
2019-01-23T14:11:59.464Z,92881.52
2019-01-23T14:14:28.964Z,92891.18
2019-01-23T14:16:58.567Z,92887.29
2019-01-23T14:19:28.103Z,92891.45
2019-01-23T14:22:17.878Z,92892.40
2019-01-23T14:25:00.435Z,92835.13
2019-01-23T14:27:49.322Z,92807.45
2019-01-23T14:30:23.593Z,92896.69
2019-01-23T14:32:53.175Z,92897.91
2019-01-23T14:35:22.660Z,92899.20
2019-01-23T14:37:52.310Z,92896.16
2019-01-23T14:40:22.177Z,92899.48
2019-01-23T14:43:11.202Z,92902.69
2019-01-23T14:45:40.683Z,92903.69
2019-01-23T14:48:10.180Z,92899.89
2019-01-23T14:50:39.914Z,92904.97
2019-01-23T14:53:09.538Z,92908.23
2019-01-23T14:55:39.034Z,92910.15
2019-01-23T14:58:08.681Z,92909.45
2019-01-23T15:00:38.253Z,92900.54
2019-01-23T15:03:07.969Z,92907.35
2019-01-23T15:05:37.571Z,92910.64
2019-01-23T15:08:07.215Z,92909.62
2019-01-23T15:10:36.767Z,92911.54
2019-01-23T15:13:06.791Z,92909.16
2019-01-23T15:15:36.290Z,92911.98
2019-01-23T15:18:06.014Z,92909.36
2019-01-23T15:20:38.869Z,92910.98
2019-01-23T15:23:08.554Z,92910.77
2019-01-23T15:25:38.117Z,92908.42
2019-01-23T15:28:07.724Z,92909.80
2019-01-23T15:30:37.333Z,92910.02
2019-01-23T15:33:26.212Z,92916.21
2019-01-23T15:35:55.811Z,92919.84
2019-01-23T15:38:25.359Z,92926.75
2019-01-23T15:40:54.895Z,92931.19
2019-01-23T15:43:43.787Z,92930.53
2019-01-23T15:46:13.547Z,92935.80
2019-01-23T15:48:43.092Z,92927.30
2019-01-23T15:51:12.617Z,92928.24
2019-01-23T15:53:42.218Z,92927.12
2019-01-23T15:56:11.712Z,92938.86
2019-01-23T15:58:41.963Z,92937.05
2019-01-23T16:01:11.464Z,92943.33
2019-01-23T16:03:41.013Z,92946.63
2019-01-23T16:06:10.517Z,92947.17
2019-01-23T16:08:40.133Z,92948.25
2019-01-23T16:11:10.372Z,92963.02
2019-01-23T16:13:42.363Z,92948.82
2019-01-23T16:16:11.133Z,92953.11
2019-01-23T16:18:40.675Z,92951.31
2019-01-23T16:21:10.178Z,92956.80
2019-01-23T16:23:39.731Z,92960.17
2019-01-23T16:26:09.229Z,92962.27
2019-01-23T16:28:38.770Z,92969.27
2019-01-23T16:31:08.303Z,92972.26
2019-01-23T16:33:37.873Z,92972.07
2019-01-23T16:36:07.600Z,92980.05
2019-01-23T16:38:37.142Z,92982.35
2019-01-23T16:41:06.711Z,92981.33
2019-01-23T16:43:36.265Z,92977.88
2019-01-23T16:46:06.033Z,92984.83
2019-01-23T16:48:35.573Z,92987.80
2019-01-23T16:51:05.288Z,92985.70
2019-01-23T16:53:34.879Z,92994.34
2019-01-23T16:56:04.666Z,92995.97
2019-01-23T16:58:34.265Z,92996.76
2019-01-23T17:01:03.889Z,93000.25
2019-01-23T17:03:33.603Z,93002.34
2019-01-23T17:06:03.205Z,93006.20
2019-01-23T17:08:32.781Z,93005.59
2019-01-23T17:11:02.312Z,93009.78
2019-01-23T17:13:31.885Z,93015.55
2019-01-23T17:16:02.572Z,93019.80
2019-01-23T17:18:32.149Z,93020.15
2019-01-23T17:21:01.851Z,93023.04
2019-01-23T17:23:44.079Z,93024.20
2019-01-23T17:26:32.924Z,93023.53
2019-01-23T17:29:02.467Z,93029.12
2019-01-23T17:31:32.052Z,93028.97
2019-01-23T17:34:01.617Z,93032.30
2019-01-23T17:36:31.176Z,93029.44
2019-01-23T17:39:00.741Z,93032.89
2019-01-23T17:41:30.717Z,93033.44
2019-01-23T17:44:00.673Z,93026.09
2019-01-23T17:49:42.326Z,93032.20
2019-01-23T17:52:11.825Z,93038.34
2019-01-23T17:54:41.385Z,93040.09
2019-01-23T17:57:11.009Z,93043.23
2019-01-23T17:59:40.593Z,93044.81
2019-01-23T18:02:10.157Z,93044.08
2019-01-23T18:04:39.695Z,93040.73
2019-01-23T18:07:09.227Z,93047.77
2019-01-23T18:09:38.769Z,93044.75
2019-01-23T18:12:08.349Z,93048.39
2019-01-23T18:14:37.891Z,93055.19
2019-01-23T18:17:07.395Z,93052.08
2019-01-23T18:19:36.946Z,93057.83
2019-01-23T18:22:06.517Z,93055.53
2019-01-23T18:24:37.210Z,93054.52
2019-01-23T18:27:06.819Z,93055.88
2019-01-23T18:29:36.555Z,93057.50
2019-01-23T18:32:06.138Z,93055.60
2019-01-23T18:35:15.948Z,93063.69
2019-01-23T18:38:25.562Z,93063.61
2019-01-23T18:41:41.489Z,93061.61
2019-01-23T18:44:21.585Z,93065.44
2019-01-23T18:47:25.526Z,93070.02
2019-01-23T18:50:32.719Z,93064.70
2019-01-23T18:53:02.205Z,93074.73
2019-01-23T18:55:31.750Z,93075.09
2019-01-23T18:58:01.305Z,93079.39
2019-01-23T19:00:30.909Z,93080.13
2019-01-23T19:03:06.707Z,93078.43
2019-01-23T19:05:31.963Z,93084.58
2019-01-23T19:08:01.562Z,93088.23
2019-01-23T19:10:31.145Z,93091.06
2019-01-23T19:13:00.640Z,93096.86
2019-01-23T19:15:30.258Z,93094.98
2019-01-23T19:17:59.771Z,93096.70
2019-01-23T19:20:29.393Z,93094.48
2019-01-23T19:22:58.900Z,93094.98
2019-01-23T19:25:28.554Z,93094.59
2019-01-23T19:27:58.147Z,93102.19
2019-01-23T19:30:27.845Z,93102.65
2019-01-23T19:32:57.345Z,93101.86
2019-01-23T19:35:26.922Z,93105.61
2019-01-23T19:37:56.422Z,93116.40
2019-01-23T19:40:25.923Z,93117.22
2019-01-23T19:42:55.471Z,93116.47
2019-01-23T19:45:25.015Z,93126.40
2019-01-23T19:47:54.516Z,93125.07
2019-01-23T19:50:24.097Z,93122.81
2019-01-23T19:52:54.053Z,93121.14
2019-01-23T19:55:23.662Z,93121.42
2019-01-23T19:57:53.174Z,93128.75
2019-01-23T20:00:23.430Z,93126.13
2019-01-23T20:02:53.009Z,93135.77
2019-01-23T20:05:25.708Z,93136.91
2019-01-23T20:07:55.290Z,93138.53
2019-01-23T20:10:25.876Z,93134.22
2019-01-23T20:12:55.481Z,93144.59
2019-01-23T20:15:25.169Z,93150.81
2019-01-23T20:17:56.563Z,93152.16
2019-01-23T20:20:26.094Z,93153.82
2019-01-23T20:22:55.966Z,93154.70
2019-01-23T20:25:26.971Z,93153.16
2019-01-23T20:27:56.729Z,93152.80
2019-01-23T20:30:30.614Z,93156.59
2019-01-23T20:33:00.275Z,93161.92
2019-01-23T20:35:30.001Z,93164.48
2019-01-23T20:37:59.608Z,93166.89
2019-01-23T20:40:29.373Z,93159.36
2019-01-23T20:42:59.104Z,93158.42
2019-01-23T20:45:28.729Z,93160.48
2019-01-23T20:47:58.238Z,93163.17
2019-01-23T20:50:30.537Z,93161.40
2019-01-23T20:53:00.123Z,93165.88
2019-01-23T20:55:29.779Z,93173.16
2019-01-23T20:57:59.346Z,93178.86
2019-01-23T21:00:32.314Z,93179.68
2019-01-23T21:03:02.071Z,93180.87
2019-01-23T21:05:31.680Z,93188.09
2019-01-23T21:08:01.288Z,93187.25
2019-01-23T21:10:30.783Z,93195.92
2019-01-23T21:13:00.339Z,93197.38
2019-01-23T21:15:31.286Z,93202.34
2019-01-23T21:18:01.856Z,93201.30
2019-01-23T21:20:31.860Z,93197.49
2019-01-23T21:23:01.411Z,93205.98
2019-01-23T21:25:30.975Z,93208.77
2019-01-23T21:28:00.605Z,93212.13
2019-01-23T21:30:30.397Z,93215.78
2019-01-23T21:32:59.964Z,93213.92
2019-01-23T21:35:29.521Z,93212.89
2019-01-23T21:37:59.099Z,93217.31
2019-01-23T21:40:31.349Z,93218.37
2019-01-23T21:43:20.274Z,93220.52
2019-01-23T21:49:03.949Z,93226.38
2019-01-23T21:51:33.488Z,93220.58
2019-01-23T21:54:03.015Z,93222.84
2019-01-23T21:56:32.504Z,93226.72
2019-01-23T21:59:02.043Z,93231.92
2019-01-23T22:01:31.532Z,93232.38
2019-01-23T22:04:01.131Z,93234.59
2019-01-23T22:06:30.698Z,93243.17
2019-01-23T22:09:00.224Z,93242.58
2019-01-23T22:11:29.764Z,93250.20
2019-01-23T22:13:59.313Z,93246.36
2019-01-23T22:16:28.804Z,93253.33
2019-01-23T22:18:58.330Z,93259.62
2019-01-23T22:21:28.001Z,93262.64
2019-01-23T22:23:57.567Z,93265.57
2019-01-23T22:26:27.082Z,93269.88
2019-01-23T22:28:56.703Z,93276.59
2019-01-23T22:31:26.377Z,93273.56
2019-01-23T22:33:56.464Z,93278.90
2019-01-23T22:36:26.519Z,93281.06
2019-01-23T22:38:56.085Z,93287.07
2019-01-23T22:41:25.609Z,93285.66
2019-01-23T22:43:55.126Z,93287.59
2019-01-23T22:46:24.673Z,93290.58
2019-01-23T22:48:55.027Z,93295.56
2019-01-23T22:51:24.961Z,93292.22
2019-01-23T22:53:54.484Z,93294.58
2019-01-23T22:56:24.050Z,93295.56
2019-01-23T22:58:53.579Z,93304.45
2019-01-23T23:01:24.600Z,93308.77
2019-01-23T23:03:54.221Z,93312.51
2019-01-23T23:06:23.726Z,93317.69
2019-01-23T23:08:53.245Z,93322.00
2019-01-23T23:11:22.743Z,93328.09
2019-01-23T23:13:52.267Z,93329.20
2019-01-23T23:16:21.765Z,93333.35
2019-01-23T23:18:51.301Z,93337.87
2019-01-23T23:21:20.831Z,93338.35
2019-01-23T23:23:50.426Z,93343.05
2019-01-23T23:26:19.938Z,93351.70
2019-01-23T23:28:49.442Z,93349.63
2019-01-23T23:31:18.953Z,93354.83
2019-01-23T23:33:48.468Z,93366.17
2019-01-23T23:36:17.989Z,93364.98
2019-01-23T23:38:47.502Z,93366.06
2019-01-23T23:41:17.046Z,93373.81
2019-01-23T23:43:46.541Z,93374.70
2019-01-23T23:46:16.038Z,93382.56
2019-01-23T23:48:45.579Z,93380.20
2019-01-23T23:51:15.100Z,93388.02
2019-01-23T23:53:44.647Z,93387.88
2019-01-23T23:56:14.149Z,93387.34
2019-01-23T23:58:43.759Z,93388.72
